Flight Track Log - Related Links

Times and Time Zones

All times are in EDT time to prevent confusion due to time zone crossing. See the LBQ968 flight status page for this flight to view local times or setup timezone preferences in your user account.

Time Position Orientation Groundspeed Altitude Reporting Facility
EDT Latitude Longitude Course Direction KTS MPH feet Rate Location/Type
Sat 05:53:01 PM 42.2069 -76.8075 48° Northeast 144 166 3,600  Level Boston Center
Sat 05:54:02 PM 42.2458 -76.7819 26° Northeast 151 174 4,200 689 Climbing Boston Center
Sat 05:55:03 PM 42.2858 -76.7533 28° Northeast 157 181 5,000 393 Climbing Boston Center
Sat 05:56:04 PM 42.3294 -76.7217 28° Northeast 173 199 5,000 49 Level Boston Center
Sat 05:57:00 PM 42.3374 -76.7213 30° Northeast  Level FlightAware Approximate
Sat 05:57:06 PM 42.3769 -76.6836 31° Northeast 193 222 5,100  Level Boston Center
Sat 05:58:07 PM 42.4264 -76.6461 29° Northeast 201 231 5,000 -49 Descending Boston Center
Sat 05:59:08 PM 42.4753 -76.6117 27° Northeast 201 231 5,000  Level Boston Center
Sat 06:00:09 PM 42.5247 -76.5769 27° Northeast 201 231 5,000  Level Boston Center
Sat 06:01:11 PM 42.5739 -76.5425 27° Northeast 201 231 5,000  Level Boston Center
Sat 06:02:12 PM 42.6322 -76.5003 28° Northeast 200 230 5,000 49 Level Boston Center
Sat 06:03:13 PM 42.6803 -76.4661 28° Northeast 199 229 5,100  Climbing Boston Center
Sat 06:03:36 PM 42.6997 -76.4522 28° Northeast 199 229 5,000  Descending Boston Center
Sat 06:04:14 PM 42.7211 -76.4133 53° Northeast 201 231 5,100  Climbing Boston Center
Sat 06:04:37 PM 42.7339 -76.3906 53° Northeast 209 241 5,000 -97 Descending Boston Center
Sat 06:05:16 PM 42.7525 -76.3514 57° Northeast 201 231 5,000  Level Boston Center
Sat 06:05:31 PM 42.7633 -76.3331 51° Northeast 200 230 5,000  Level Boston Center
Sat 06:06:17 PM 42.7883 -76.2931 50° Northeast 201 231 5,000  Level Boston Center
Sat 06:06:38 PM 42.8044 -76.2675 49° Northeast 199 229 5,000  Level Boston Center
Sat 06:07:18 PM 42.8269 -76.2294 51° Northeast 200 230 5,000  Level Boston Center
Sat 06:07:39 PM 42.8386 -76.2058 56° Northeast 202 232 5,000 -295 Level Boston Center
Sat 06:08:19 PM 42.8639 -76.1725 44° Northeast 202 232 4,700 -500 Descending Boston Center
Sat 06:08:39 PM 42.8831 -76.1586 28° Northeast 210 242 4,500 -484 Descending Boston Center
Sat 06:09:21 PM 42.9164 -76.1389 23° Northeast 205 236 4,200 -537 Descending Boston Center
Sat 06:09:46 PM 42.9411 -76.1303 14° North 202 232 3,900 -590 Descending Boston Center
Sat 06:10:22 PM 42.9697 -76.1183 17° North 204 235 3,600 -590 Descending Boston Center
Sat 06:10:47 PM 42.9919 -76.1086 18° North 195 224 3,300 -787 Descending Boston Center
Sat 06:11:23 PM 43.0203 -76.0944 20° North 199 229 2,800 -800 Descending Boston Center
Sat 06:11:47 PM 43.0453 -76.0844 16° North 183 211 2,500 -492 Descending Boston Center
Sat 06:12:24 PM 43.0686 -76.0764 14° North 191 220 2,300 -590 Descending Boston Center
Sat 06:12:48 PM 43.0881 -76.0717 10° North 154 177 1,900 -1,161 Descending Boston Center
Sat 06:13:26 PM 43.1067 -76.0753 352° North 165 190 1,100 -787 Descending Boston Center
Sat 06:13:49 PM 43.1092 -76.0986 278° West 112 129 1,100 -295 Level Boston Center
Sat 06:14:27 PM 43.1139 -76.1436 278° West 171 197 800  Descending Boston Center
Sat 06:14:49 PM 43.1067 -76.1125 108° East 10 12 1,100 818 Climbing Boston Center

Login

Don't have an account? Register now (free) for customized features, flight alerts, and more!